sensor_id;sensor_type;location;lat;lon;timestamp;temperature;humidity
12164;DHT22;6145;50.192;10.064;2023-08-07T16:29:27;19.30;82.90
12164;DHT22;6145;50.192;10.064;2023-08-07T16:31:55;19.30;82.20
12164;DHT22;6145;50.192;10.064;2023-08-07T16:34:22;19.30;81.60
12164;DHT22;6145;50.192;10.064;2023-08-07T16:36:49;19.10;81.60
12164;DHT22;6145;50.192;10.064;2023-08-07T16:39:15;19.10;81.10
12164;DHT22;6145;50.192;10.064;2023-08-07T16:41:42;19.00;81.20
12164;DHT22;6145;50.192;10.064;2023-08-07T16:44:11;19.00;81.50
12164;DHT22;6145;50.192;10.064;2023-08-07T16:46:39;19.00;82.10
12164;DHT22;6145;50.192;10.064;2023-08-07T16:49:06;19.00;81.70
12164;DHT22;6145;50.192;10.064;2023-08-07T16:51:32;18.50;81.00
12164;DHT22;6145;50.192;10.064;2023-08-07T16:54:00;19.00;81.00
12164;DHT22;6145;50.192;10.064;2023-08-07T16:56:27;18.90;80.70
12164;DHT22;6145;50.192;10.064;2023-08-07T16:58:54;18.90;80.40
12164;DHT22;6145;50.192;10.064;2023-08-07T17:01:21;19.00;79.70
12164;DHT22;6145;50.192;10.064;2023-08-07T17:11:00;18.60;79.50
12164;DHT22;6145;50.192;10.064;2023-08-07T17:13:54;18.30;79.30
12164;DHT22;6145;50.192;10.064;2023-08-07T17:22:27;18.50;80.90
12164;DHT22;6145;50.192;10.064;2023-08-07T17:25:03;18.50;80.40
12164;DHT22;6145;50.192;10.064;2023-08-07T17:27:49;18.60;81.20
12164;DHT22;6145;50.192;10.064;2023-08-07T17:30:20;18.50;78.00
12164;DHT22;6145;50.192;10.064;2023-08-07T17:32:48;18.40;78.10
12164;DHT22;6145;50.192;10.064;2023-08-07T17:35:17;16.50;76.80
12164;DHT22;6145;50.192;10.064;2023-08-07T17:37:51;18.40;78.50
12164;DHT22;6145;50.192;10.064;2023-08-07T17:40:22;18.40;77.60
12164;DHT22;6145;50.192;10.064;2023-08-07T17:42:52;18.30;78.10
12164;DHT22;6145;50.192;10.064;2023-08-07T17:45:26;18.30;77.10
12164;DHT22;6145;50.192;10.064;2023-08-07T17:48:02;18.20;77.40
12164;DHT22;6145;50.192;10.064;2023-08-07T17:50:34;18.20;77.50
12164;DHT22;6145;50.192;10.064;2023-08-07T17:53:06;18.30;76.50
12164;DHT22;6145;50.192;10.064;2023-08-07T17:55:36;18.10;76.50
12164;DHT22;6145;50.192;10.064;2023-08-07T17:58:07;18.00;76.90
12164;DHT22;6145;50.192;10.064;2023-08-07T18:00:51;18.00;77.20
12164;DHT22;6145;50.192;10.064;2023-08-07T18:04:26;16.40;76.20
12164;DHT22;6145;50.192;10.064;2023-08-07T18:07:10;17.90;77.40
12164;DHT22;6145;50.192;10.064;2023-08-07T18:13:01;17.80;77.90
12164;DHT22;6145;50.192;10.064;2023-08-07T19:41:14;16.40;82.80
12164;DHT22;6145;50.192;10.064;2023-08-07T19:43:46;16.40;83.20
12164;DHT22;6145;50.192;10.064;2023-08-07T19:53:11;16.40;84.30
12164;DHT22;6145;50.192;10.064;2023-08-07T20:02:44;17.30;84.50
12164;DHT22;6145;50.192;10.064;2023-08-07T20:05:48;16.10;84.20
12164;DHT22;6145;50.192;10.064;2023-08-07T20:12:30;16.20;84.20
12164;DHT22;6145;50.192;10.064;2023-08-07T20:15:33;16.10;84.30
12164;DHT22;6145;50.192;10.064;2023-08-07T20:29:17;15.90;85.00
12164;DHT22;6145;50.192;10.064;2023-08-07T20:32:07;15.90;85.30
12164;DHT22;6145;50.192;10.064;2023-08-07T20:35:08;15.80;85.40
12164;DHT22;6145;50.192;10.064;2023-08-07T20:41:10;15.70;85.30
12164;DHT22;6145;50.192;10.064;2023-08-07T20:47:08;15.70;85.50
12164;DHT22;6145;50.192;10.064;2023-08-07T20:50:08;15.70;86.40
12164;DHT22;6145;50.192;10.064;2023-08-07T20:53:50;15.60;85.80
12164;DHT22;6145;50.192;10.064;2023-08-07T21:06:59;15.30;85.60
12164;DHT22;6145;50.192;10.064;2023-08-07T21:09:40;15.00;85.90
12164;DHT22;6145;50.192;10.064;2023-08-07T21:16:11;15.20;86.30
12164;DHT22;6145;50.192;10.064;2023-08-07T21:43:11;14.90;87.40
12164;DHT22;6145;50.192;10.064;2023-08-07T21:45:41;14.90;87.30
12164;DHT22;6145;50.192;10.064;2023-08-07T21:48:10;16.00;88.50
12164;DHT22;6145;50.192;10.064;2023-08-07T21:50:43;16.00;88.70
12164;DHT22;6145;50.192;10.064;2023-08-07T21:53:30;14.90;87.70
12164;DHT22;6145;50.192;10.064;2023-08-07T21:55:57;14.80;87.70
12164;DHT22;6145;50.192;10.064;2023-08-07T21:58:27;15.50;88.60
12164;DHT22;6145;50.192;10.064;2023-08-07T22:01:00;14.90;88.10
12164;DHT22;6145;50.192;10.064;2023-08-07T22:03:30;14.70;88.40
12164;DHT22;6145;50.192;10.064;2023-08-07T22:06:00;15.80;89.30
12164;DHT22;6145;50.192;10.064;2023-08-07T22:08:40;14.80;88.50
12164;DHT22;6145;50.192;10.064;2023-08-07T22:11:17;14.80;88.60
12164;DHT22;6145;50.192;10.064;2023-08-07T22:13:46;14.70;88.70
12164;DHT22;6145;50.192;10.064;2023-08-07T22:16:13;15.40;89.50
12164;DHT22;6145;50.192;10.064;2023-08-07T22:18:40;16.00;90.40
12164;DHT22;6145;50.192;10.064;2023-08-07T22:21:10;14.60;89.90
12164;DHT22;6145;50.192;10.064;2023-08-07T22:23:44;14.20;90.00
12164;DHT22;6145;50.192;10.064;2023-08-07T22:26:14;14.60;90.40
12164;DHT22;6145;50.192;10.064;2023-08-07T22:28:55;15.30;90.70
12164;DHT22;6145;50.192;10.064;2023-08-07T22:31:22;14.60;90.60
12164;DHT22;6145;50.192;10.064;2023-08-07T22:33:49;14.50;90.70
12164;DHT22;6145;50.192;10.064;2023-08-07T22:36:17;14.60;90.90
12164;DHT22;6145;50.192;10.064;2023-08-07T22:38:44;15.50;91.30
12164;DHT22;6145;50.192;10.064;2023-08-07T22:41:11;15.90;91.60
12164;DHT22;6145;50.192;10.064;2023-08-07T22:43:40;14.70;91.10
12164;DHT22;6145;50.192;10.064;2023-08-07T22:46:12;14.60;91.00
12164;DHT22;6145;50.192;10.064;2023-08-07T22:48:41;14.60;91.00
12164;DHT22;6145;50.192;10.064;2023-08-07T22:51:08;15.60;91.50
12164;DHT22;6145;50.192;10.064;2023-08-07T22:53:36;14.60;91.10
12164;DHT22;6145;50.192;10.064;2023-08-07T22:56:03;14.60;91.10
12164;DHT22;6145;50.192;10.064;2023-08-07T22:58:33;14.60;91.10
12164;DHT22;6145;50.192;10.064;2023-08-07T23:01:05;14.40;90.90
12164;DHT22;6145;50.192;10.064;2023-08-07T23:03:41;14.60;91.20
12164;DHT22;6145;50.192;10.064;2023-08-07T23:06:21;14.60;91.10
12164;DHT22;6145;50.192;10.064;2023-08-07T23:09:01;15.60;91.60
12164;DHT22;6145;50.192;10.064;2023-08-07T23:11:41;14.70;91.30
12164;DHT22;6145;50.192;10.064;2023-08-07T23:16:59;14.40;91.10
12164;DHT22;6145;50.192;10.064;2023-08-07T23:19:39;14.60;91.00
12164;DHT22;6145;50.192;10.064;2023-08-07T23:22:12;14.50;91.10
12164;DHT22;6145;50.192;10.064;2023-08-07T23:24:48;13.80;90.80
12164;DHT22;6145;50.192;10.064;2023-08-07T23:27:42;14.50;91.10
12164;DHT22;6145;50.192;10.064;2023-08-07T23:30:20;15.30;91.50
12164;DHT22;6145;50.192;10.064;2023-08-07T23:32:53;14.50;90.90
12164;DHT22;6145;50.192;10.064;2023-08-07T23:35:50;15.90;91.70
12164;DHT22;6145;50.192;10.064;2023-08-07T23:38:43;14.20;90.70
12164;DHT22;6145;50.192;10.064;2023-08-07T23:41:18;14.40;91.00
12164;DHT22;6145;50.192;10.064;2023-08-07T23:44:05;13.50;90.50
12164;DHT22;6145;50.192;10.064;2023-08-07T23:46:58;15.30;91.50
12164;DHT22;6145;50.192;10.064;2023-08-07T23:50:19;14.30;91.00
12164;DHT22;6145;50.192;10.064;2023-08-07T23:53:34;14.30;91.10
12164;DHT22;6145;50.192;10.064;2023-08-07T23:56:09;14.30;91.10
12164;DHT22;6145;50.192;10.064;2023-08-07T23:58:45;14.40;91.30
